Terminal Aerodrome Forecast
Issued by NWS

Home | Current Version | Previous Version | Text Only | Print | Product List | Glossary On
Versions: 1 2 3 4 5 6 7 8 9 10 11 12 13 14
000
FTUS45 KSLC 192335
TAF36U
TAF
K36U 192335Z 2000/2024 26011KT P6SM VCSH SCT060 BKN170
     FM200300 VRB04KT P6SM SCT060 SCT120
     FM201600 23008KT P6SM FEW070 SCT200
     FM202000 23010G18KT P6SM VCSH SCT070 SCT100=

USA.gov is the U.S. government's official web portal to all federal, state and local government web resources and services.